Time;durP1;ratioP1;P1;durP2;ratioP2;P2;SDS_P1;SDS_P2;PMS_P1;PMS_P2;Temp;Humidity;BMP_temperature;BMP_pressure;BME280_temperature;BME280_humidity;BME280_pressure;Samples;Min_cycle;Max_cycle;Signal;HPM_P1;HPM_P2
2022/08/31 00:03:55;;;;;;;10.63;6.22;;;;;;;19.11;79.29;101217.28;4969402;29;20109;-78
2022/08/31 00:06:24;;;;;;;9.20;6.20;;;;;;;19.07;80.75;101218.69;4969534;28;20105;-79
2022/08/31 00:08:51;;;;;;;7.35;5.75;;;;;;;18.87;80.77;101219.44;4967144;28;20093;-79
2022/08/31 00:11:26;;;;;;;6.40;5.35;;;;;;;18.70;79.39;101210.16;4966093;29;20055;-81
2022/08/31 00:13:53;;;;;;;8.85;6.07;;;;;;;18.64;81.02;101226.03;4969037;28;20059;-80
2022/08/31 00:16:20;;;;;;;8.50;5.78;;;;;;;18.71;80.78;101226.88;4965654;28;20086;-79
2022/08/31 00:18:51;;;;;;;8.85;6.03;;;;;;;18.78;79.93;101217.97;4961423;28;20089;-80
2022/08/31 00:21:18;;;;;;;11.32;6.68;;;;;;;18.78;80.72;101220.63;4968044;29;20055;-79
2022/08/31 00:23:47;;;;;;;7.32;5.93;;;;;;;18.74;79.85;101221.19;4969168;29;20071;-80
2022/08/31 00:26:14;;;;;;;8.15;5.95;;;;;;;18.81;79.71;101216.75;4968122;29;20456;-79
2022/08/31 00:28:40;;;;;;;12.45;6.10;;;;;;;18.83;79.05;101215.53;4969402;29;20062;-79
2022/08/31 00:31:07;;;;;;;7.18;5.70;;;;;;;18.80;79.03;101215.13;4968786;28;20137;-79
2022/08/31 00:33:35;;;;;;;9.88;5.78;;;;;;;18.78;79.88;101227.75;4969171;28;20183;-80
2022/08/31 00:36:02;;;;;;;12.05;7.35;;;;;;;18.68;81.59;101230.75;4969208;28;20110;-80
2022/08/31 00:38:29;;;;;;;11.05;6.47;;;;;;;18.59;82.14;101229.22;4967297;28;20543;-80
2022/08/31 00:40:57;;;;;;;8.25;6.25;;;;;;;18.64;82.06;101226.84;4969338;28;20452;-80
2022/08/31 00:43:44;;;;;;;9.38;6.30;;;;;;;18.64;82.78;101221.53;4969925;29;20031;-80
2022/08/31 00:46:13;;;;;;;11.75;6.50;;;;;;;18.66;82.74;101222.16;4969907;28;20051;-80
2022/08/31 00:48:45;;;;;;;10.98;7.00;;;;;;;18.54;84.57;101215.72;4967902;28;20079;-80
2022/08/31 00:51:12;;;;;;;10.80;7.00;;;;;;;18.31;85.70;101210.69;4965155;29;20123;-80
2022/08/31 00:53:39;;;;;;;9.07;7.18;;;;;;;18.09;86.12;101204.59;4967700;28;20047;-79
2022/08/31 00:56:08;;;;;;;12.40;6.97;;;;;;;18.01;87.11;101196.78;4968227;29;20078;-81
2022/08/31 00:58:34;;;;;;;7.82;6.80;;;;;;;17.94;87.17;101188.00;4967607;29;20082;-80
2022/08/31 01:01:03;;;;;;;8.18;6.53;;;;;;;17.99;86.96;101192.69;4968075;28;20455;-81
2022/08/31 01:03:29;;;;;;;10.38;7.30;;;;;;;17.98;89.05;101169.88;4967891;28;20090;-80
2022/08/31 01:05:56;;;;;;;11.55;7.22;;;;;;;17.99;88.33;101180.25;4968228;28;20047;-80
2022/08/31 01:08:23;;;;;;;8.35;7.13;;;;;;;17.89;88.50;101179.81;4965798;28;20055;-80
2022/08/31 01:10:50;;;;;;;9.27;7.90;;;;;;;17.81;90.05;101174.63;4966750;28;20051;-80
2022/08/31 01:13:18;;;;;;;10.68;7.70;;;;;;;17.83;92.98;101183.19;4967258;28;20051;-82
2022/08/31 01:15:51;;;;;;;12.40;8.50;;;;;;;17.83;95.06;101191.16;4967115;28;20051;-77
2022/08/31 01:18:19;;;;;;;10.65;7.72;;;;;;;17.77;94.86;101198.00;4965961;28;20058;-78
2022/08/31 01:20:54;;;;;;;11.70;8.35;;;;;;;17.69;94.84;101198.13;4966895;29;20051;-80
2022/08/31 01:23:26;;;;;;;9.20;7.97;;;;;;;17.66;95.03;101195.03;4966782;28;20102;-79
2022/08/31 01:25:55;;;;;;;9.98;7.93;;;;;;;17.72;94.86;101204.88;4966387;28;20051;-80
2022/08/31 01:28:22;;;;;;;10.60;8.02;;;;;;;17.70;94.61;101209.53;4966000;28;20051;-79
2022/08/31 01:30:59;;;;;;;11.20;8.35;;;;;;;17.75;95.85;101209.78;4966446;28;20083;-79
2022/08/31 01:33:25;;;;;;;12.48;7.80;;;;;;;17.76;94.11;101211.44;4966985;28;20086;-80
2022/08/31 01:35:52;;;;;;;11.73;8.15;;;;;;;17.80;94.05;101218.00;4966480;29;20043;-80
2022/08/31 01:38:19;;;;;;;8.93;7.35;;;;;;;17.79;92.83;101211.88;4964661;28;20083;-79
2022/08/31 01:40:53;;;;;;;8.73;7.10;;;;;;;17.78;93.00;101214.72;4965022;29;20542;-80
2022/08/31 01:43:21;;;;;;;10.07;7.07;;;;;;;17.70;91.17;101218.31;4965145;29;20093;-80
2022/08/31 01:45:48;;;;;;;9.02;7.15;;;;;;;17.65;91.37;101212.75;4966345;29;20059;-80
2022/08/31 01:48:15;;;;;;;9.52;6.97;;;;;;;17.69;92.49;101215.84;4964971;29;20130;-80
2022/08/31 01:50:42;;;;;;;10.50;8.07;;;;;;;17.67;93.88;101212.56;4965667;28;20047;-80
2022/08/31 01:53:09;;;;;;;10.60;7.38;;;;;;;17.63;94.95;101208.63;4968547;29;20471;-80
2022/08/31 01:55:36;;;;;;;11.07;7.05;;;;;;;17.34;95.03;101206.88;4967389;29;20168;-81
2022/08/31 01:58:04;;;;;;;10.40;7.88;;;;;;;17.20;96.52;101212.03;4969452;28;20065;-80
2022/08/31 02:00:31;;;;;;;9.82;8.15;;;;;;;17.10;97.07;101218.59;4971189;28;20070;-79
2022/08/31 02:03:01;;;;;;;11.90;8.48;;;;;;;17.07;97.84;101221.59;4969664;28;20051;-80
2022/08/31 02:05:28;;;;;;;12.02;8.10;;;;;;;16.89;96.63;101225.47;4969404;28;20071;-79
2022/08/31 02:07:54;;;;;;;13.77;8.05;;;;;;;16.95;97.53;101218.63;4963762;28;20290;-79
2022/08/31 02:10:21;;;;;;;11.23;7.90;;;;;;;16.98;98.32;101212.97;4962321;28;20086;-78
2022/08/31 02:12:48;;;;;;;12.95;9.13;;;;;;;16.94;98.76;101229.38;4963865;29;20087;-80
2022/08/31 02:15:17;;;;;;;11.32;8.02;;;;;;;16.94;99.19;101218.81;4975578;29;20057;-79
2022/08/31 02:17:43;;;;;;;9.45;8.05;;;;;;;16.87;99.10;101227.47;4962594;29;20047;-80
2022/08/31 02:20:12;;;;;;;10.90;8.70;;;;;;;16.89;98.98;101232.56;4999607;23;20046;-80
2022/08/31 02:22:38;;;;;;;10.52;8.27;;;;;;;17.00;100.00;101228.66;4980692;28;20095;-79
2022/08/31 02:25:06;;;;;;;9.57;8.45;;;;;;;16.95;100.00;101241.59;5003458;28;20114;-79
2022/08/31 02:27:34;;;;;;;10.80;8.48;;;;;;;16.83;100.00;101235.94;5010699;28;20092;-80
2022/08/31 02:30:00;;;;;;;15.40;8.73;;;;;;;16.82;100.00;101239.59;4962406;28;20444;-80
2022/08/31 02:32:29;;;;;;;10.10;8.52;;;;;;;16.66;100.00;101243.22;4963508;29;20074;-80
2022/08/31 02:34:55;;;;;;;11.15;8.48;;;;;;;16.70;100.00;101256.88;4964937;29;20054;-79
2022/08/31 02:37:22;;;;;;;10.93;8.48;;;;;;;16.79;100.00;101256.63;4961868;29;20082;-80
2022/08/31 02:39:49;;;;;;;10.68;8.68;;;;;;;16.78;100.00;101265.56;4967439;28;20495;-80
2022/08/31 02:42:15;;;;;;;11.68;9.30;;;;;;;16.79;100.00;101255.81;4981297;28;20091;-80
2022/08/31 02:44:42;;;;;;;12.75;9.77;;;;;;;16.71;100.00;101261.16;4980800;28;20086;-80
2022/08/31 02:47:09;;;;;;;12.68;9.48;;;;;;;16.75;100.00;101259.81;4981194;28;20086;-80
2022/08/31 02:49:37;;;;;;;12.40;9.63;;;;;;;16.77;100.00;101263.91;4980329;28;20078;-80
2022/08/31 02:52:04;;;;;;;12.13;9.35;;;;;;;16.76;100.00;101261.44;4981128;28;20115;-80
2022/08/31 02:54:30;;;;;;;13.15;9.48;;;;;;;16.67;100.00;101252.78;4980801;28;20094;-80
2022/08/31 02:56:57;;;;;;;11.10;9.43;;;;;;;16.70;100.00;101252.41;4980429;28;20058;-79
2022/08/31 02:59:24;;;;;;;11.60;8.95;;;;;;;16.71;100.00;101263.81;4980394;28;20059;-81
2022/08/31 03:01:51;;;;;;;12.05;9.10;;;;;;;16.60;100.00;101262.41;4980972;28;20455;-81
2022/08/31 03:04:18;;;;;;;12.82;9.45;;;;;;;16.55;100.00;101260.28;4980654;28;20113;-81
2022/08/31 03:06:46;;;;;;;15.55;9.60;;;;;;;16.63;100.00;101250.66;4979861;28;20082;-80
2022/08/31 03:09:14;;;;;;;11.00;8.75;;;;;;;16.59;100.00;101247.53;4979771;28;20105;-80
2022/08/31 03:11:41;;;;;;;14.02;9.32;;;;;;;16.73;100.00;101252.06;4979380;28;20042;-79
2022/08/31 03:14:07;;;;;;;10.77;9.65;;;;;;;16.68;100.00;101254.44;4979964;28;20531;-79
2022/08/31 03:16:34;;;;;;;11.48;8.82;;;;;;;16.54;100.00;101247.28;4978453;28;20075;-79
2022/08/31 03:19:01;;;;;;;16.33;10.15;;;;;;;16.57;100.00;101252.19;4978808;28;20051;-79
2022/08/31 03:21:27;;;;;;;12.02;9.85;;;;;;;16.57;100.00;101249.53;4978680;28;20173;-79
2022/08/31 03:23:55;;;;;;;13.18;9.65;;;;;;;16.52;100.00;101257.22;4978722;28;20435;-78
2022/08/31 03:26:22;;;;;;;13.65;9.55;;;;;;;16.50;100.00;101252.09;4977932;28;20525;-79
2022/08/31 03:28:49;;;;;;;12.98;10.20;;;;;;;16.58;100.00;101257.28;4977526;28;20086;-79
2022/08/31 03:31:15;;;;;;;12.07;9.43;;;;;;;16.76;100.00;101251.69;4978015;28;20093;-79
2022/08/31 03:33:42;;;;;;;11.43;9.30;;;;;;;16.76;100.00;101251.69;4977893;28;20484;-79
2022/08/31 03:36:08;;;;;;;15.45;9.65;;;;;;;16.73;100.00;101251.25;4977773;28;20068;-78
2022/08/31 03:38:35;;;;;;;13.70;9.20;;;;;;;16.75;100.00;101250.06;4976482;28;20137;-79
2022/08/31 03:41:03;;;;;;;15.15;9.55;;;;;;;16.73;100.00;101244.13;4977140;28;20055;-78
2022/08/31 03:43:30;;;;;;;11.70;8.98;;;;;;;16.76;100.00;101245.59;4976658;28;20054;-79
2022/08/31 03:45:57;;;;;;;15.25;9.73;;;;;;;16.72;100.00;101237.22;4976994;28;20117;-78
2022/08/31 03:48:23;;;;;;;13.27;9.57;;;;;;;16.72;100.00;101233.75;4977219;28;20133;-78
2022/08/31 03:50:50;;;;;;;13.55;9.77;;;;;;;16.58;100.00;101228.22;4977559;28;20086;-78
2022/08/31 03:53:17;;;;;;;15.25;10.85;;;;;;;16.52;100.00;101228.16;4976342;28;20086;-78
2022/08/31 03:55:44;;;;;;;13.68;9.82;;;;;;;16.64;100.00;101236.44;4977280;28;20043;-79
2022/08/31 03:58:12;;;;;;;16.50;10.75;;;;;;;16.69;100.00;101237.56;4977912;28;20146;-79
2022/08/31 04:00:42;;;;;;;11.68;10.48;;;;;;;16.70;100.00;101239.22;4976478;28;20142;-79
2022/08/31 04:03:09;;;;;;;12.88;10.18;;;;;;;16.77;100.00;101249.88;4976085;28;20429;-78
2022/08/31 04:05:41;;;;;;;13.40;10.85;;;;;;;16.80;100.00;101245.06;4975903;28;20133;-78
2022/08/31 04:08:08;;;;;;;12.95;10.45;;;;;;;16.76;100.00;101235.84;4975118;28;20050;-78
2022/08/31 04:10:34;;;;;;;15.07;10.50;;;;;;;16.72;100.00;101239.84;4975262;28;20130;-78
2022/08/31 04:13:01;;;;;;;12.02;10.25;;;;;;;16.75;100.00;101239.50;4975858;28;20089;-78
2022/08/31 04:15:29;;;;;;;12.05;9.50;;;;;;;16.71;100.00;101238.22;4973858;28;20134;-78
2022/08/31 04:17:56;;;;;;;14.57;9.05;;;;;;;16.76;100.00;101241.13;4974191;28;20057;-78
2022/08/31 04:20:23;;;;;;;13.63;9.95;;;;;;;16.76;100.00;101241.13;4975801;28;20070;-78
2022/08/31 04:22:49;;;;;;;16.25;11.07;;;;;;;16.66;100.00;101250.31;4976278;28;20061;-78
2022/08/31 04:25:16;;;;;;;13.80;10.77;;;;;;;16.57;100.00;101249.53;4975854;28;20124;-78
2022/08/31 04:27:43;;;;;;;13.80;11.18;;;;;;;16.44;100.00;101246.72;4975812;28;20541;-78
2022/08/31 04:30:10;;;;;;;16.08;12.48;;;;;;;16.35;100.00;101247.78;4973016;28;20542;-78
2022/08/31 04:32:38;;;;;;;15.25;12.82;;;;;;;16.39;100.00;101251.72;4974146;28;20189;-78
2022/08/31 04:35:07;;;;;;;15.55;13.25;;;;;;;16.50;100.00;101259.22;4974234;28;20498;-78
2022/08/31 04:37:34;;;;;;;17.10;12.90;;;;;;;16.48;100.00;101255.94;4974583;28;20057;-79
2022/08/31 04:40:02;;;;;;;14.68;13.15;;;;;;;16.41;100.00;101252.34;4974621;28;20055;-79
2022/08/31 04:42:29;;;;;;;18.08;13.57;;;;;;;16.41;100.00;101258.47;4975075;28;20057;-78
2022/08/31 04:44:56;;;;;;;14.60;12.98;;;;;;;16.49;100.00;101261.03;4975627;28;20054;-79
2022/08/31 04:47:22;;;;;;;16.48;14.05;;;;;;;16.54;100.00;101263.16;4978048;28;20071;-78
2022/08/31 04:49:50;;;;;;;17.38;14.23;;;;;;;16.55;100.00;101259.47;4975160;28;20244;-79
2022/08/31 04:52:17;;;;;;;15.32;12.63;;;;;;;16.52;100.00;101262.50;4976240;28;20054;-79
2022/08/31 04:54:44;;;;;;;17.05;13.18;;;;;;;16.59;100.00;101268.69;4977124;28;20550;-78
2022/08/31 04:57:10;;;;;;;20.17;13.45;;;;;;;16.59;100.00;101271.31;4975542;28;20528;-79
2022/08/31 04:59:37;;;;;;;17.70;13.02;;;;;;;16.53;100.00;101264.16;4975043;28;20525;-79
2022/08/31 05:02:04;;;;;;;17.75;12.57;;;;;;;16.45;100.00;101265.03;4977876;28;20110;-79
2022/08/31 05:04:30;;;;;;;15.07;12.05;;;;;;;16.48;100.00;101259.41;4974540;28;20138;-79
2022/08/31 05:06:59;;;;;;;19.63;12.30;;;;;;;16.51;100.00;101268.78;4974932;28;20130;-79
2022/08/31 05:09:26;;;;;;;16.35;13.10;;;;;;;16.48;100.00;101269.13;4975010;28;20082;-79
2022/08/31 05:11:54;;;;;;;16.55;13.07;;;;;;;16.39;100.00;101263.09;4975310;28;20089;-79
2022/08/31 05:14:21;;;;;;;17.42;12.50;;;;;;;16.51;100.00;101258.22;4975067;28;20098;-79
2022/08/31 05:16:49;;;;;;;14.00;12.23;;;;;;;16.51;100.00;101253.75;4975394;28;20058;-79
2022/08/31 05:19:15;;;;;;;13.57;11.43;;;;;;;16.58;100.00;101246.72;4976607;28;20141;-80
2022/08/31 05:21:43;;;;;;;13.80;10.93;;;;;;;16.49;100.00;101254.94;4977908;28;20053;-79
2022/08/31 05:24:15;;;;;;;14.30;11.35;;;;;;;16.44;100.00;101257.28;4974187;28;20054;-79
2022/08/31 05:26:46;;;;;;;16.27;12.00;;;;;;;16.41;100.00;101268.22;4975055;28;20079;-80
2022/08/31 05:29:14;;;;;;;18.50;13.00;;;;;;;16.44;100.00;101263.38;4978544;28;20322;-80
2022/08/31 05:31:43;;;;;;;21.00;13.23;;;;;;;16.40;100.00;101250.72;4979316;28;20098;-81
2022/08/31 05:34:11;;;;;;;15.38;13.30;;;;;;;16.42;100.00;101264.56;4979961;28;20141;-80
2022/08/31 05:36:39;;;;;;;17.45;13.95;;;;;;;16.46;100.00;101266.69;4979778;28;20070;-80
2022/08/31 05:39:08;;;;;;;19.65;13.68;;;;;;;16.58;100.00;101270.50;4984925;28;20047;-80
2022/08/31 05:41:36;;;;;;;19.88;13.48;;;;;;;16.56;100.00;101267.22;4987262;28;20051;-81
2022/08/31 05:44:04;;;;;;;16.27;13.40;;;;;;;16.60;100.00;101267.69;4985058;28;20110;-82
2022/08/31 05:46:30;;;;;;;15.77;13.40;;;;;;;16.61;100.00;101269.31;4979469;28;20129;-80
2022/08/31 05:48:57;;;;;;;16.27;13.18;;;;;;;16.60;100.00;101267.69;4980849;28;20082;-80
2022/08/31 05:51:24;;;;;;;19.38;14.00;;;;;;;16.58;100.00;101259.13;4980899;28;20078;-80
2022/08/31 05:53:51;;;;;;;14.35;12.75;;;;;;;16.66;100.00;101258.25;4980685;28;20077;-80
2022/08/31 05:56:23;;;;;;;16.35;11.55;;;;;;;16.67;100.00;101263.34;4980793;28;20110;-80
2022/08/31 05:58:52;;;;;;;15.80;11.27;;;;;;;16.72;100.00;101255.72;4980848;28;20054;-80
2022/08/31 06:01:22;;;;;;;16.70;11.30;;;;;;;16.90;100.00;101269.41;4980640;28;20082;-80
2022/08/31 06:03:52;;;;;;;13.70;11.10;;;;;;;16.85;100.00;101270.94;4983116;28;20062;-81
2022/08/31 06:06:20;;;;;;;14.70;10.90;;;;;;;16.91;100.00;101278.97;4980767;28;20090;-79
2022/08/31 06:08:53;;;;;;;15.27;11.45;;;;;;;16.91;100.00;101276.34;4982208;28;20082;-80
2022/08/31 06:11:22;;;;;;;13.10;11.27;;;;;;;16.97;100.00;101281.91;4981364;28;20121;-81
2022/08/31 06:13:52;;;;;;;14.55;11.43;;;;;;;17.02;100.00;101280.31;4982277;28;20126;-82
2022/08/31 06:16:20;;;;;;;12.82;11.15;;;;;;;17.03;100.00;101284.59;4981594;28;20093;-80
2022/08/31 06:18:49;;;;;;;19.98;11.02;;;;;;;17.30;100.00;101283.16;4981641;28;20086;-80
2022/08/31 06:21:19;;;;;;;16.48;11.35;;;;;;;17.42;100.00;101281.69;4981597;28;20109;-81
2022/08/31 06:23:48;;;;;;;16.85;11.32;;;;;;;17.26;100.00;101279.22;4981907;28;20054;-81
2022/08/31 06:26:16;;;;;;;13.52;11.38;;;;;;;17.31;100.00;101282.16;4982706;28;20058;-81
2022/08/31 06:28:44;;;;;;;16.60;11.45;;;;;;;17.39;100.00;101292.63;4980901;28;20051;-81
2022/08/31 06:31:17;;;;;;;15.05;11.55;;;;;;;17.35;100.00;101283.41;4980958;28;20682;-81
2022/08/31 06:33:44;;;;;;;13.55;11.10;;;;;;;17.35;100.00;101283.41;4980585;28;20047;-81
2022/08/31 06:36:12;;;;;;;13.35;11.93;;;;;;;17.31;100.00;101287.44;4981342;28;20090;-81
2022/08/31 06:38:40;;;;;;;13.75;11.40;;;;;;;17.19;100.00;101288.91;4980699;28;20078;-81
2022/08/31 06:41:12;;;;;;;15.65;11.70;;;;;;;17.13;100.00;101286.97;4981456;28;20588;-81
2022/08/31 06:43:39;;;;;;;17.65;12.45;;;;;;;17.09;100.00;101298.91;4980883;28;20130;-82
2022/08/31 06:46:06;;;;;;;14.45;12.70;;;;;;;16.89;100.00;101299.47;4981071;28;20135;-79
2022/08/31 06:48:35;;;;;;;15.80;12.20;;;;;;;16.76;100.00;101301.91;4980276;28;20078;-81
2022/08/31 06:51:02;;;;;;;15.35;12.35;;;;;;;16.81;100.00;101296.91;4982018;28;20088;-81
2022/08/31 06:53:29;;;;;;;15.27;12.02;;;;;;;16.86;100.00;101304.31;4981416;28;20082;-81
2022/08/31 06:55:56;;;;;;;15.73;13.18;;;;;;;16.83;100.00;101307.31;4981675;28;20439;-81
2022/08/31 06:58:23;;;;;;;14.07;11.88;;;;;;;16.86;100.00;101299.03;4981700;28;20178;-80
2022/08/31 07:00:50;;;;;;;16.77;12.85;;;;;;;16.88;100.00;101308.41;4981599;28;20061;-81
2022/08/31 07:03:31;;;;;;;17.80;12.57;;;;;;;16.89;100.00;101311.88;4983250;28;20093;-80
2022/08/31 07:06:04;;;;;;;17.20;13.13;;;;;;;16.91;100.00;101307.22;4983242;28;20047;-81
2022/08/31 07:08:32;;;;;;;17.65;12.05;;;;;;;17.02;100.00;101311.22;4980996;28;20575;-81
2022/08/31 07:10:58;;;;;;;17.42;12.70;;;;;;;16.88;100.00;101318.97;4981063;28;20522;-80
2022/08/31 07:13:25;;;;;;;18.23;12.63;;;;;;;16.86;100.00;101305.13;4981222;28;20078;-81
2022/08/31 07:15:52;;;;;;;16.25;12.98;;;;;;;16.97;100.00;101314.44;4980952;28;20082;-80
2022/08/31 07:18:19;;;;;;;16.27;13.50;;;;;;;17.06;100.00;101315.16;4980752;28;20124;-80
2022/08/31 07:20:45;;;;;;;15.98;13.13;;;;;;;17.14;100.00;101310.59;4980185;28;20158;-81
2022/08/31 07:23:14;;;;;;;13.00;11.63;;;;;;;17.48;100.00;101320.63;4980756;28;20093;-80
2022/08/31 07:25:40;;;;;;;16.52;11.88;;;;;;;17.84;98.20;101323.31;4980746;28;20085;-81
2022/08/31 07:28:07;;;;;;;17.00;11.75;;;;;;;17.44;98.96;101318.53;4981096;28;20578;-79
2022/08/31 07:30:40;;;;;;;13.85;12.45;;;;;;;17.34;100.00;101321.47;4980874;28;20149;-80
2022/08/31 07:33:08;;;;;;;19.58;13.18;;;;;;;17.31;100.00;101328.94;4980195;28;20050;-81
2022/08/31 07:35:37;;;;;;;17.85;13.35;;;;;;;17.27;100.00;101325.00;4980200;28;20070;-80
2022/08/31 07:43:35;;;;;;;15.90;12.73;;;;;;;17.59;100.00;101341.31;4980726;28;20113;-82
2022/08/31 07:46:02;;;;;;;16.15;12.77;;;;;;;17.71;100.00;101327.63;4980379;28;20093;-82
2022/08/31 07:48:29;;;;;;;15.05;11.93;;;;;;;17.58;99.88;101331.72;4974952;28;20142;-80
2022/08/31 07:50:55;;;;;;;16.15;13.45;;;;;;;17.64;99.41;101334.63;4980840;28;20074;-80
2022/08/31 07:53:23;;;;;;;21.75;12.85;;;;;;;17.70;98.97;101328.66;4980881;28;20078;-80
2022/08/31 07:55:55;;;;;;;16.08;11.20;;;;;;;18.37;97.95;101336.28;4979317;28;20058;-80
2022/08/31 07:58:22;;;;;;;14.48;11.50;;;;;;;18.75;97.28;101340.31;4980037;28;20082;-80
2022/08/31 08:00:50;;;;;;;15.18;12.77;;;;;;;19.22;95.52;101347.56;4980020;28;20105;-80
2022/08/31 08:03:17;;;;;;;14.75;11.85;;;;;;;19.58;92.79;101351.03;4979994;28;20046;-80
2022/08/31 08:05:44;;;;;;;14.00;10.77;;;;;;;19.56;88.72;101337.94;4978842;28;20078;-81
2022/08/31 08:08:11;;;;;;;12.70;10.45;;;;;;;19.61;88.21;101345.31;4978755;28;20364;-80
2022/08/31 08:10:47;;;;;;;14.98;10.90;;;;;;;20.33;85.93;101350.81;4979615;28;20050;-80
2022/08/31 08:13:18;;;;;;;14.73;10.95;;;;;;;19.92;85.93;101347.47;4979843;28;20042;-82
2022/08/31 08:15:47;;;;;;;14.80;11.63;;;;;;;19.12;89.20;101346.25;4980192;28;20054;-81
2022/08/31 08:18:14;;;;;;;16.83;10.30;;;;;;;19.37;90.53;101350.09;4980183;28;20071;-81
2022/08/31 08:20:41;;;;;;;14.13;10.52;;;;;;;19.59;88.33;101342.03;4951901;23;1159544;-80
2022/08/31 08:23:11;;;;;;;12.60;10.82;;;;;;;19.82;88.22;101353.19;4963882;29;20047;-80
2022/08/31 08:25:38;;;;;;;12.07;10.55;;;;;;;19.88;87.67;101353.19;4963266;29;20047;-79
2022/08/31 08:28:05;;;;;;;14.73;11.25;;;;;;;19.75;87.70;101353.16;4965961;28;20111;-79
2022/08/31 08:30:33;;;;;;;17.35;10.95;;;;;;;20.43;85.21;101353.13;4960029;28;20078;-78
2022/08/31 08:33:02;;;;;;;16.55;11.27;;;;;;;21.46;83.82;101365.72;4961265;29;20238;-80
2022/08/31 08:35:29;;;;;;;13.30;10.60;;;;;;;22.14;79.55;101371.38;4966231;29;20046;-80
2022/08/31 08:37:56;;;;;;;14.60;10.88;;;;;;;21.31;79.17;101356.34;4969816;28;20047;-78
2022/08/31 08:40:30;;;;;;;14.15;11.02;;;;;;;20.52;82.21;101339.44;4976341;28;20046;-78
2022/08/31 08:42:58;;;;;;;16.73;12.05;;;;;;;19.90;85.50;101342.34;4973699;28;20051;-77
2022/08/31 08:45:25;;;;;;;13.10;11.25;;;;;;;20.28;84.09;101336.53;4973649;28;20047;-80
2022/08/31 08:47:57;;;;;;;13.25;10.98;;;;;;;20.88;85.21;101348.81;4974235;29;20062;-81
2022/08/31 08:50:26;;;;;;;16.60;11.20;;;;;;;20.82;80.90;101345.13;4971418;29;20043;-80
2022/08/31 08:52:56;;;;;;;11.88;10.57;;;;;;;20.70;82.95;101338.81;4964131;29;20110;-80
2022/08/31 08:55:35;;;;;;;18.70;11.55;;;;;;;20.76;83.13;101348.66;4959982;29;20496;-82
2022/08/31 08:58:04;;;;;;;17.42;10.82;;;;;;;21.09;81.68;101350.44;4967607;29;20177;-81
2022/08/31 09:00:32;;;;;;;13.30;11.18;;;;;;;21.23;80.92;101359.25;4966259;28;20050;-81
2022/08/31 09:03:05;;;;;;;15.93;11.82;;;;;;;20.93;80.56;101353.53;4960861;29;20051;-80
2022/08/31 09:05:50;;;;;;;14.73;10.93;;;;;;;20.90;78.86;101356.59;4969445;29;20066;-80
2022/08/31 09:08:33;;;;;;;14.32;11.35;;;;;;;20.73;79.79;101358.88;4967580;29;20131;-81
2022/08/31 09:11:16;;;;;;;13.20;11.70;;;;;;;20.71;80.43;101359.06;4970504;29;20051;-81
2022/08/31 09:13:52;;;;;;;14.40;12.20;;;;;;;20.86;79.68;101357.00;4969474;29;20058;-81
2022/08/31 09:16:38;;;;;;;15.80;11.63;;;;;;;20.70;78.52;101360.09;4965842;29;20519;-81
2022/08/31 09:19:11;;;;;;;11.95;10.70;;;;;;;21.31;78.61;101361.66;4967531;28;20119;-81
2022/08/31 09:21:44;;;;;;;17.75;11.65;;;;;;;21.49;76.94;101357.31;4968373;29;20057;-81
2022/08/31 09:24:13;;;;;;;20.50;12.23;;;;;;;21.04;76.63;101364.34;4963934;28;20062;-80
2022/08/31 09:26:54;;;;;;;13.88;11.93;;;;;;;21.53;74.49;101384.34;4959006;28;20055;-80
2022/08/31 09:29:23;;;;;;;19.08;11.65;;;;;;;22.08;72.80;101372.25;4966577;28;20109;-81
2022/08/31 09:32:01;;;;;;;15.52;11.10;;;;;;;22.78;72.55;101367.66;4967512;29;20518;-81
2022/08/31 09:34:31;;;;;;;20.30;12.43;;;;;;;22.63;72.81;101366.34;4966535;29;20051;-81
2022/08/31 09:37:15;;;;;;;13.13;11.45;;;;;;;22.52;72.27;101367.84;4967232;29;20086;-80
2022/08/31 09:39:46;;;;;;;15.13;11.27;;;;;;;22.49;72.15;101368.28;4969456;28;20082;-79
2022/08/31 09:42:27;;;;;;;13.60;10.75;;;;;;;22.94;72.99;101368.13;4968397;29;20057;-81
2022/08/31 09:44:57;;;;;;;14.00;11.20;;;;;;;22.61;72.06;101369.22;4948589;29;20428;-82
2022/08/31 09:47:44;;;;;;;13.95;11.45;;;;;;;22.21;72.40;101367.88;4968268;29;20047;-80
2022/08/31 09:50:25;;;;;;;11.73;10.35;;;;;;;22.78;72.35;101362.31;4948524;29;20047;-81
2022/08/31 09:55:35;;;;;;;13.73;11.25;;;;;;;23.21;70.83;101368.69;4950121;29;20066;-80
2022/08/31 09:58:06;;;;;;;15.27;12.10;;;;;;;23.11;70.03;101362.00;4960920;29;20507;-79
2022/08/31 10:00:39;;;;;;;12.45;10.88;;;;;;;23.31;68.97;101360.97;4967126;29;20058;-79
2022/08/31 10:03:10;;;;;;;13.77;10.55;;;;;;;23.44;70.00;101363.50;4968652;29;20056;-80
2022/08/31 10:05:42;;;;;;;13.10;11.70;;;;;;;22.68;71.38;101361.16;4967009;28;20055;-79
2022/08/31 10:08:26;;;;;;;13.80;12.38;;;;;;;22.76;70.81;101356.34;4964626;29;20051;-78
2022/08/31 10:10:57;;;;;;;13.35;11.95;;;;;;;23.68;72.06;101367.94;4968635;28;20059;-79
2022/08/31 10:13:38;;;;;;;18.70;11.90;;;;;;;23.72;69.52;101360.31;4967699;29;20523;-79
2022/08/31 10:16:13;;;;;;;14.70;12.00;;;;;;;23.56;67.80;101353.75;4947124;29;20058;-80
2022/08/31 10:18:56;;;;;;;12.23;10.93;;;;;;;23.68;66.99;101348.44;4953974;28;20083;-78
2022/08/31 10:21:31;;;;;;;12.63;10.55;;;;;;;23.73;68.84;101345.91;4970545;29;20268;-80
2022/08/31 10:24:19;;;;;;;13.45;10.88;;;;;;;23.66;67.24;101342.50;4972530;28;20055;-80
2022/08/31 10:26:50;;;;;;;13.75;11.02;;;;;;;23.61;67.15;101339.72;4970885;29;20051;-80
2022/08/31 10:29:34;;;;;;;12.97;10.50;;;;;;;23.77;66.55;101339.06;4967261;28;20055;-79
2022/08/31 10:32:16;;;;;;;12.98;9.27;;;;;;;23.75;65.87;101351.84;4964863;29;20460;-79
2022/08/31 10:35:04;;;;;;;13.05;8.98;;;;;;;24.22;64.22;101347.47;4967897;28;20946;-79
2022/08/31 10:37:42;;;;;;;16.10;9.93;;;;;;;24.59;64.17;101350.00;4966386;29;20058;-80
2022/08/31 10:40:15;;;;;;;13.65;9.52;;;;;;;24.25;63.54;101341.69;4963932;28;20541;-78
2022/08/31 10:42:49;;;;;;;9.90;8.90;;;;;;;23.67;65.38;101336.94;4957987;29;20065;-78
2022/08/31 10:45:21;;;;;;;13.95;8.98;;;;;;;23.89;62.90;101331.09;4957137;29;20051;-82
2022/08/31 10:47:50;;;;;;;12.50;8.75;;;;;;;23.95;63.58;101335.53;4945698;29;20078;-79
2022/08/31 10:50:25;;;;;;;11.23;8.40;;;;;;;24.42;62.63;101333.84;4963726;29;20082;-79
2022/08/31 10:53:04;;;;;;;12.93;8.80;;;;;;;24.29;63.28;101334.03;4961916;29;20051;-78
2022/08/31 10:55:38;;;;;;;10.05;7.72;;;;;;;23.85;62.52;101328.06;4958592;29;20159;-77
2022/08/31 10:58:18;;;;;;;11.75;8.60;;;;;;;24.00;62.59;101339.16;4958354;29;20373;-78
2022/08/31 11:00:53;;;;;;;17.23;8.98;;;;;;;24.02;62.89;101337.09;4957141;29;20078;-77
2022/08/31 11:03:37;;;;;;;10.90;8.05;;;;;;;24.12;62.11;101341.84;4957193;29;20103;-78
2022/08/31 11:06:11;;;;;;;9.30;8.10;;;;;;;24.12;63.56;101339.19;4956474;29;20054;-78
2022/08/31 11:08:48;;;;;;;13.95;8.23;;;;;;;23.48;63.95;101340.66;4960745;29;20483;-79
2022/08/31 11:11:26;;;;;;;11.60;8.18;;;;;;;23.74;63.90;101335.00;4943954;29;20135;-79
2022/08/31 11:14:14;;;;;;;9.18;7.30;;;;;;;23.97;62.96;101328.13;4943794;29;20082;-80
2022/08/31 11:17:07;;;;;;;8.70;7.50;;;;;;;23.89;63.46;101337.25;4950174;29;20141;-80
2022/08/31 11:19:49;;;;;;;;;;;;;;;24.23;62.59;101341.09;4943926;29;20090;-80
2022/08/31 11:22:47;;;;;;;10.50;8.00;;;;;;;24.66;61.16;101338.16;4947721;29;19930;-81
2022/08/31 11:25:50;;;;;;;8.60;7.70;;;;;;;25.04;59.72;101342.25;4957997;29;20055;-79
2022/08/31 11:28:32;;;;;;;12.05;7.35;;;;;;;24.67;60.72;101339.78;4964205;29;20078;-80
2022/08/31 11:31:00;;;;;;;;;;;;;;;23.81;61.22;101340.25;4961914;28;20245;-78
2022/08/31 11:33:30;;;;;;;12.93;7.40;;;;;;;23.88;61.99;101334.81;4956074;29;19945;-78